Time;durP1;ratioP1;P1;durP2;ratioP2;P2;SDS_P1;SDS_P2;PMS_P1;PMS_P2;Temp;Humidity;BMP_temperature;BMP_pressure;BME280_temperature;BME280_humidity;BME280_pressure;Samples;Min_cycle;Max_cycle;Signal;HPM_P1;HPM_P2
2023/09/14 00:00:53;;;;;;;3.17;1.92;;;22.30;99.90;;;;;;5033876;28;20049;-38
2023/09/14 00:03:19;;;;;;;2.28;2.05;;;22.30;99.90;;;;;;5033949;28;20033;-39
2023/09/14 00:05:48;;;;;;;3.08;2.13;;;22.30;99.90;;;;;;5033568;28;20039;-38
2023/09/14 00:08:14;;;;;;;3.33;2.10;;;22.30;99.90;;;;;;5032581;28;20029;-39
2023/09/14 00:10:40;;;;;;;2.45;2.00;;;22.30;99.90;;;;;;5033874;28;20061;-39
2023/09/14 00:13:07;;;;;;;1.88;1.67;;;22.30;99.90;;;;;;5033718;28;20025;-39
2023/09/14 00:15:33;;;;;;;4.40;2.22;;;22.30;99.90;;;;;;5032887;28;20116;-39
2023/09/14 00:17:59;;;;;;;3.03;1.92;;;22.30;99.90;;;;;;5033588;28;20097;-39
2023/09/14 00:20:28;;;;;;;2.65;2.20;;;22.30;99.90;;;;;;5033693;28;20050;-38
2023/09/14 00:22:55;;;;;;;2.63;1.55;;;22.30;99.90;;;;;;5033525;28;20156;-39
2023/09/14 00:25:21;;;;;;;2.80;2.03;;;22.30;99.90;;;;;;5033239;28;20029;-39
2023/09/14 00:27:48;;;;;;;2.95;2.05;;;22.30;99.90;;;;;;5033412;28;20479;-39
2023/09/14 00:30:14;;;;;;;3.05;1.67;;;22.30;99.90;;;;;;5033453;28;20030;-39
2023/09/14 00:32:40;;;;;;;3.33;2.00;;;22.30;99.90;;;;;;5033394;28;20026;-38
2023/09/14 00:35:13;;;;;;;3.40;2.20;;;22.30;99.90;;;;;;5033230;28;20059;-38
2023/09/14 00:37:41;;;;;;;3.42;1.98;;;22.20;99.90;;;;;;5033364;28;20030;-39
2023/09/14 00:40:08;;;;;;;3.55;1.98;;;22.30;99.90;;;;;;5033307;28;20061;-39
2023/09/14 00:42:45;;;;;;;3.58;2.30;;;22.20;99.90;;;;;;5033121;28;20107;-38
2023/09/14 00:45:16;;;;;;;6.45;2.10;;;22.20;99.90;;;;;;5032952;28;20048;-38
2023/09/14 00:47:45;;;;;;;3.78;1.92;;;22.20;99.90;;;;;;5033188;28;20026;-39
2023/09/14 00:50:15;;;;;;;2.70;2.08;;;22.20;99.90;;;;;;5033084;28;20021;-39
2023/09/14 00:52:41;;;;;;;3.90;2.10;;;22.20;99.90;;;;;;5033003;28;20147;-39
2023/09/14 00:55:08;;;;;;;5.07;2.05;;;22.20;99.90;;;;;;5032727;28;20028;-38
2023/09/14 00:57:35;;;;;;;2.38;1.85;;;22.20;99.90;;;;;;5015282;28;20029;-39
2023/09/14 01:00:05;;;;;;;3.65;2.03;;;22.20;99.90;;;;;;5032994;28;20026;-38
2023/09/14 01:02:33;;;;;;;2.67;2.08;;;22.20;99.90;;;;;;5032863;28;20113;-39
2023/09/14 01:05:00;;;;;;;3.45;2.13;;;22.20;99.90;;;;;;5032634;28;20025;-38
2023/09/14 01:07:26;;;;;;;4.07;1.85;;;22.20;99.90;;;;;;5032529;28;20026;-38
2023/09/14 01:09:52;;;;;;;2.45;1.85;;;22.20;99.90;;;;;;5032746;28;20035;-38
2023/09/14 01:12:18;;;;;;;2.92;2.10;;;22.20;99.90;;;;;;5032830;28;20021;-38
2023/09/14 01:15:11;;;;;;;3.85;1.85;;;22.10;99.90;;;;;;5032535;28;20084;-39
2023/09/14 01:17:50;;;;;;;2.53;2.00;;;22.20;99.90;;;;;;5032658;28;20022;-39
2023/09/14 01:21:04;;;;;;;2.65;2.00;;;22.10;99.90;;;;;;5032642;28;20022;-38
2023/09/14 01:23:38;;;;;;;4.30;1.80;;;22.20;99.90;;;;;;5032548;28;20108;-38
2023/09/14 01:26:04;;;;;;;2.40;2.00;;;22.20;99.90;;;;;;5032120;28;20032;-38
2023/09/14 01:28:30;;;;;;;3.28;2.00;;;22.20;99.90;;;;;;5031267;28;20029;-39
2023/09/14 01:30:55;;;;;;;2.80;1.80;;;22.10;99.90;;;;;;5032296;28;20021;-39
2023/09/14 01:33:24;;;;;;;4.07;1.80;;;22.20;99.90;;;;;;5032246;28;20057;-39
2023/09/14 01:35:56;;;;;;;2.97;2.05;;;22.20;99.90;;;;;;5031782;28;20034;-39
2023/09/14 01:38:22;;;;;;;2.33;1.90;;;22.10;99.90;;;;;;5032128;28;20043;-39
2023/09/14 01:40:49;;;;;;;5.45;2.05;;;22.10;99.90;;;;;;5032035;28;20439;-39
2023/09/14 01:43:16;;;;;;;2.47;2.05;;;22.10;99.90;;;;;;5032131;28;20112;-39
2023/09/14 01:45:42;;;;;;;2.58;2.00;;;22.20;99.90;;;;;;5031739;28;20025;-39
2023/09/14 01:48:14;;;;;;;2.60;2.03;;;22.10;99.90;;;;;;5032079;28;20026;-38
2023/09/14 01:50:40;;;;;;;3.97;1.80;;;22.10;99.90;;;;;;5032092;28;20103;-38
2023/09/14 01:53:05;;;;;;;2.78;2.20;;;22.20;99.90;;;;;;5032050;28;20034;-39
2023/09/14 01:55:31;;;;;;;4.32;2.25;;;22.10;99.90;;;;;;5031517;28;20132;-38
2023/09/14 01:57:56;;;;;;;3.85;2.20;;;22.10;99.90;;;;;;5031876;28;20032;-39
2023/09/14 02:00:22;;;;;;;2.78;1.88;;;22.10;99.90;;;;;;5031797;28;20025;-39
2023/09/14 02:02:48;;;;;;;3.55;2.22;;;22.10;99.90;;;;;;5031701;28;20025;-38
2023/09/14 02:05:13;;;;;;;3.65;2.38;;;22.10;99.90;;;;;;5031308;28;20478;-39
2023/09/14 02:07:39;;;;;;;4.43;2.10;;;22.10;99.90;;;;;;5031665;28;20057;-39
2023/09/14 02:10:05;;;;;;;3.92;2.10;;;22.20;99.90;;;;;;5031499;28;20032;-39
2023/09/14 02:12:30;;;;;;;3.38;2.42;;;22.10;99.90;;;;;;5031594;28;20386;-38
2023/09/14 02:14:56;;;;;;;2.85;1.95;;;22.10;99.90;;;;;;5031397;28;20032;-39
2023/09/14 02:17:22;;;;;;;2.65;1.92;;;22.10;99.90;;;;;;5031432;28;20034;-39
2023/09/14 02:19:47;;;;;;;2.40;1.75;;;22.10;99.90;;;;;;5031421;28;20183;-39
2023/09/14 02:22:13;;;;;;;4.20;2.15;;;22.10;99.90;;;;;;5031437;28;20022;-39
2023/09/14 02:24:39;;;;;;;2.70;2.10;;;22.10;99.90;;;;;;5031246;28;20483;-38
2023/09/14 02:27:04;;;;;;;3.63;1.80;;;22.10;99.90;;;;;;5031192;28;20063;-39
2023/09/14 02:29:30;;;;;;;2.17;1.83;;;22.10;99.90;;;;;;5031412;28;20368;-39
2023/09/14 02:31:56;;;;;;;2.95;2.10;;;22.10;99.90;;;;;;5031370;28;20075;-39
2023/09/14 02:34:22;;;;;;;6.97;2.35;;;22.10;99.90;;;;;;5031237;28;20554;-39
2023/09/14 02:36:48;;;;;;;3.45;2.38;;;22.10;99.90;;;;;;5031004;28;20119;-39
2023/09/14 02:39:13;;;;;;;3.17;2.10;;;22.10;99.90;;;;;;5030796;28;20026;-39
2023/09/14 02:41:39;;;;;;;3.50;2.47;;;22.10;99.90;;;;;;5031231;28;20502;-39
2023/09/14 02:44:05;;;;;;;4.13;2.20;;;22.10;99.90;;;;;;5031209;28;20025;-39
2023/09/14 02:46:30;;;;;;;5.70;2.72;;;22.10;99.90;;;;;;5030916;28;20029;-38
2023/09/14 02:48:56;;;;;;;2.50;2.00;;;22.10;99.90;;;;;;5031193;28;20022;-38
2023/09/14 02:51:21;;;;;;;3.25;2.28;;;22.10;99.90;;;;;;5031182;28;20430;-39
2023/09/14 02:53:47;;;;;;;5.10;2.83;;;22.10;99.90;;;;;;5030957;28;20378;-39
2023/09/14 02:56:13;;;;;;;5.38;2.90;;;22.10;99.90;;;;;;5030997;28;20117;-39
2023/09/14 02:58:38;;;;;;;4.13;2.67;;;22.10;99.90;;;;;;5031293;28;20069;-39
2023/09/14 03:01:08;;;;;;;5.10;2.45;;;22.10;99.90;;;;;;5031180;28;20033;-39
2023/09/14 03:03:38;;;;;;;3.05;2.28;;;22.10;99.90;;;;;;5031088;28;20032;-39
2023/09/14 03:06:04;;;;;;;3.03;2.40;;;22.10;99.90;;;;;;5030696;28;20557;-39
2023/09/14 03:08:30;;;;;;;3.72;2.40;;;22.10;99.90;;;;;;5031001;28;20494;-38
2023/09/14 03:10:56;;;;;;;3.47;2.20;;;22.10;99.90;;;;;;5031028;28;20072;-38
2023/09/14 03:13:22;;;;;;;4.18;2.80;;;22.10;99.90;;;;;;5031015;28;20037;-39
2023/09/14 03:15:58;;;;;;;2.53;2.20;;;22.10;99.90;;;;;;5030694;28;20022;-39
2023/09/14 03:18:25;;;;;;;2.92;2.60;;;22.10;99.90;;;;;;5030936;28;20033;-39
2023/09/14 03:20:53;;;;;;;2.90;2.50;;;22.10;99.90;;;;;;5031221;28;20468;-39
2023/09/14 03:23:19;;;;;;;5.53;2.55;;;22.10;99.90;;;;;;5030920;28;20487;-38
2023/09/14 03:25:45;;;;;;;4.55;2.85;;;22.00;99.90;;;;;;5030574;28;20038;-38
2023/09/14 03:28:11;;;;;;;3.05;2.13;;;22.10;99.90;;;;;;5030915;28;20022;-38
2023/09/14 03:30:37;;;;;;;4.30;2.58;;;22.10;99.90;;;;;;5030851;28;20026;-38
2023/09/14 03:33:03;;;;;;;5.65;2.60;;;22.10;99.90;;;;;;5030820;28;20395;-38
2023/09/14 03:35:28;;;;;;;2.90;2.33;;;22.10;99.90;;;;;;5030824;28;20045;-41
2023/09/14 03:37:54;;;;;;;5.05;2.40;;;22.10;99.90;;;;;;5030874;28;20053;-41
2023/09/14 03:40:20;;;;;;;3.60;2.35;;;22.00;99.90;;;;;;5030921;28;20025;-41
2023/09/14 03:42:46;;;;;;;3.10;2.40;;;22.10;99.90;;;;;;5030702;28;20026;-40
2023/09/14 03:45:11;;;;;;;4.85;2.40;;;22.10;99.90;;;;;;5030438;28;20091;-41
2023/09/14 03:47:38;;;;;;;2.65;2.30;;;22.10;99.90;;;;;;5030715;28;20053;-42
2023/09/14 03:50:05;;;;;;;2.92;2.63;;;22.10;99.90;;;;;;5030662;28;20063;-39
2023/09/14 03:52:30;;;;;;;2.80;2.33;;;22.10;99.90;;;;;;5033450;28;20104;-40
2023/09/14 03:54:56;;;;;;;3.20;2.35;;;22.10;99.90;;;;;;5034052;28;20102;-41
2023/09/14 03:57:22;;;;;;;3.42;2.72;;;22.00;99.90;;;;;;5034181;28;20037;-42
2023/09/14 03:59:48;;;;;;;4.18;2.90;;;22.00;99.90;;;;;;5034192;28;20171;-41
2023/09/14 04:02:13;;;;;;;2.83;2.35;;;22.10;99.90;;;;;;5034049;28;20518;-41
2023/09/14 04:04:43;;;;;;;2.80;2.50;;;22.00;99.90;;;;;;5033849;28;20112;-41
2023/09/14 04:07:10;;;;;;;2.97;2.50;;;22.10;99.90;;;;;;5034104;28;20034;-41
2023/09/14 04:09:36;;;;;;;4.82;2.45;;;22.10;99.90;;;;;;5033984;28;20024;-41
2023/09/14 04:12:02;;;;;;;3.15;2.60;;;22.10;99.90;;;;;;5033885;28;20021;-41
2023/09/14 04:14:28;;;;;;;4.15;2.45;;;22.10;99.90;;;;;;5033878;28;20060;-41
2023/09/14 04:16:57;;;;;;;3.55;2.65;;;22.10;99.90;;;;;;5015816;28;20055;-43
2023/09/14 04:19:24;;;;;;;3.55;2.58;;;22.00;99.90;;;;;;5034216;28;20100;-44
2023/09/14 04:21:53;;;;;;;3.08;2.50;;;22.00;99.90;;;;;;5033680;28;20052;-40
2023/09/14 04:24:19;;;;;;;2.53;2.25;;;22.00;99.90;;;;;;5033577;28;20487;-40
2023/09/14 04:26:45;;;;;;;4.25;2.65;;;22.00;99.90;;;;;;5033343;28;20036;-40
2023/09/14 04:29:11;;;;;;;3.05;2.50;;;22.00;99.90;;;;;;5033555;28;20414;-41
2023/09/14 04:31:37;;;;;;;2.65;2.08;;;22.10;99.90;;;;;;5033347;28;20056;-41
2023/09/14 04:34:02;;;;;;;2.88;2.20;;;22.00;99.90;;;;;;5033485;28;20029;-41
2023/09/14 04:36:28;;;;;;;5.20;2.42;;;22.00;99.90;;;;;;5033360;28;20041;-41
2023/09/14 04:38:54;;;;;;;3.15;2.25;;;22.00;99.90;;;;;;5033461;28;20339;-41
2023/09/14 04:41:19;;;;;;;3.80;2.78;;;22.00;99.90;;;;;;5033438;28;20390;-40
2023/09/14 04:43:45;;;;;;;3.25;2.63;;;22.00;99.90;;;;;;5033356;28;20506;-41
2023/09/14 04:46:10;;;;;;;3.20;2.83;;;22.00;99.90;;;;;;5032765;28;20031;-41
2023/09/14 04:48:38;;;;;;;4.45;2.80;;;22.00;99.90;;;;;;5033444;28;20017;-41
2023/09/14 04:51:04;;;;;;;3.60;2.63;;;22.00;99.90;;;;;;5033090;28;20478;-39
2023/09/14 04:53:30;;;;;;;3.78;2.88;;;22.00;99.90;;;;;;5033050;28;20057;-41
2023/09/14 04:55:56;;;;;;;3.85;2.45;;;22.00;99.90;;;;;;5014941;28;20107;-41
2023/09/14 04:58:22;;;;;;;3.03;2.63;;;21.90;99.90;;;;;;5033029;28;20026;-39
2023/09/14 05:00:51;;;;;;;4.10;2.55;;;22.00;99.90;;;;;;5032778;28;20040;-41
2023/09/14 05:03:17;;;;;;;3.53;2.70;;;22.00;99.90;;;;;;5032769;28;20465;-41
2023/09/14 05:05:49;;;;;;;2.47;2.25;;;22.00;99.90;;;;;;5032606;28;20030;-41
2023/09/14 05:08:15;;;;;;;4.43;2.60;;;22.00;99.90;;;;;;5032963;28;20083;-41
2023/09/14 05:10:41;;;;;;;4.07;2.60;;;22.00;99.90;;;;;;5032796;28;20394;-41
2023/09/14 05:13:06;;;;;;;4.50;2.70;;;22.00;99.90;;;;;;5032757;28;20061;-40
2023/09/14 05:15:32;;;;;;;3.10;2.05;;;22.00;99.90;;;;;;5032348;28;20037;-43
2023/09/14 05:17:57;;;;;;;3.67;2.67;;;21.90;99.90;;;;;;5032943;28;20347;-41
2023/09/14 05:20:23;;;;;;;2.78;2.58;;;22.00;99.90;;;;;;5032697;28;20036;-42
2023/09/14 05:22:49;;;;;;;3.13;2.70;;;22.10;99.90;;;;;;5032561;28;20482;-41
2023/09/14 05:25:14;;;;;;;4.28;2.97;;;22.00;99.90;;;;;;5032133;28;20033;-39
2023/09/14 05:27:41;;;;;;;3.00;2.70;;;22.00;99.90;;;;;;5032476;28;20045;-41
2023/09/14 05:30:10;;;;;;;4.10;2.92;;;22.00;99.90;;;;;;5032327;28;20037;-42
2023/09/14 05:32:37;;;;;;;4.60;2.47;;;22.00;99.90;;;;;;5032438;28;20025;-41
2023/09/14 05:35:05;;;;;;;3.42;2.40;;;22.00;99.90;;;;;;5031962;28;20038;-40
2023/09/14 05:37:30;;;;;;;3.53;2.90;;;22.00;99.90;;;;;;5032314;28;20036;-41
2023/09/14 05:39:56;;;;;;;3.85;2.63;;;22.00;99.90;;;;;;5032296;28;20022;-41
2023/09/14 05:42:22;;;;;;;5.18;2.80;;;22.00;99.90;;;;;;5032239;28;20540;-40
2023/09/14 05:44:49;;;;;;;4.57;2.60;;;22.00;99.90;;;;;;5032160;28;20033;-43
2023/09/14 05:47:14;;;;;;;2.78;2.47;;;22.00;99.90;;;;;;5032290;28;20389;-42
2023/09/14 05:49:41;;;;;;;3.60;2.78;;;21.90;99.90;;;;;;5032243;28;20545;-41
2023/09/14 05:52:07;;;;;;;3.28;2.70;;;22.00;99.90;;;;;;5032120;28;20112;-41
2023/09/14 05:54:33;;;;;;;3.60;3.05;;;22.00;99.90;;;;;;5031886;28;20106;-41
2023/09/14 05:56:59;;;;;;;4.93;2.50;;;22.00;99.90;;;;;;5031722;28;20026;-40
2023/09/14 05:59:24;;;;;;;3.45;2.67;;;22.00;99.90;;;;;;5031866;28;20022;-41
2023/09/14 06:01:53;;;;;;;3.03;2.60;;;21.90;99.90;;;;;;5031787;28;20037;-40
2023/09/14 06:04:18;;;;;;;5.38;2.72;;;22.00;99.90;;;;;;5031957;28;20203;-41
2023/09/14 06:06:44;;;;;;;5.32;3.00;;;21.90;99.90;;;;;;5031901;28;20552;-39
2023/09/14 06:09:10;;;;;;;4.13;2.72;;;21.90;99.90;;;;;;5031869;28;20099;-41
2023/09/14 06:11:36;;;;;;;2.70;2.40;;;22.00;99.90;;;;;;5031686;28;20021;-43
2023/09/14 06:14:02;;;;;;;2.90;2.40;;;21.90;99.90;;;;;;5031123;28;20030;-41
2023/09/14 06:16:28;;;;;;;3.15;2.08;;;21.90;99.90;;;;;;5031529;28;20079;-41
2023/09/14 06:18:53;;;;;;;4.93;2.85;;;21.90;99.90;;;;;;5031802;28;20033;-42
2023/09/14 06:21:19;;;;;;;2.75;2.20;;;21.90;99.90;;;;;;5031631;28;20029;-42
2023/09/14 06:23:46;;;;;;;3.30;2.90;;;21.90;99.90;;;;;;5031576;28;20080;-42
2023/09/14 06:26:12;;;;;;;5.00;3.10;;;21.90;99.90;;;;;;5031120;28;20034;-41
2023/09/14 06:28:38;;;;;;;2.53;2.33;;;21.90;99.90;;;;;;5031730;28;20391;-38
2023/09/14 06:31:03;;;;;;;3.50;2.90;;;21.90;99.90;;;;;;5031402;28;20502;-41
2023/09/14 06:33:29;;;;;;;3.03;2.50;;;21.90;99.90;;;;;;5031863;28;20144;-41
2023/09/14 06:35:55;;;;;;;4.10;2.70;;;21.90;99.90;;;;;;5031142;28;20033;-41
2023/09/14 06:38:20;;;;;;;3.10;2.75;;;21.90;99.90;;;;;;5031394;28;20036;-41
2023/09/14 06:40:46;;;;;;;3.60;3.00;;;21.90;99.90;;;;;;5031793;28;20034;-40
2023/09/14 06:43:12;;;;;;;4.75;2.65;;;21.90;99.90;;;;;;5031383;28;20029;-41
2023/09/14 06:45:37;;;;;;;4.47;2.80;;;21.90;99.90;;;;;;5031042;28;20064;-41
2023/09/14 06:48:03;;;;;;;4.88;2.75;;;21.90;99.90;;;;;;5031378;28;20021;-41
2023/09/14 06:50:29;;;;;;;3.80;2.90;;;21.90;99.90;;;;;;5031395;28;20017;-40
2023/09/14 06:52:55;;;;;;;3.67;2.25;;;21.90;99.90;;;;;;5031321;28;20021;-40
2023/09/14 06:55:20;;;;;;;4.25;2.70;;;21.90;99.90;;;;;;5030880;28;20462;-40
2023/09/14 06:57:46;;;;;;;2.67;2.47;;;21.90;99.90;;;;;;5031236;28;20403;-41
2023/09/14 07:00:16;;;;;;;3.42;2.45;;;21.90;99.90;;;;;;5031293;28;20029;-41
2023/09/14 07:02:45;;;;;;;4.25;3.05;;;21.90;99.90;;;;;;5031243;28;20136;-41
2023/09/14 07:05:10;;;;;;;3.97;2.65;;;21.90;99.90;;;;;;5030811;28;20044;-41
2023/09/14 07:07:38;;;;;;;2.40;2.20;;;21.90;99.90;;;;;;5031265;28;20030;-41
2023/09/14 07:10:04;;;;;;;3.10;1.90;;;21.90;99.90;;;;;;5031099;28;20026;-41
2023/09/14 07:12:30;;;;;;;3.33;2.53;;;21.90;99.90;;;;;;5031074;28;20454;-41
2023/09/14 07:14:55;;;;;;;3.50;2.30;;;21.90;99.90;;;;;;5030955;28;20029;-41
2023/09/14 07:17:21;;;;;;;2.42;2.22;;;21.90;99.90;;;;;;5031142;28;20029;-40
2023/09/14 07:19:47;;;;;;;2.65;2.45;;;21.90;99.90;;;;;;5031153;28;20475;-45
2023/09/14 07:22:12;;;;;;;2.40;2.20;;;21.90;99.90;;;;;;5031130;28;20049;-41
2023/09/14 07:24:38;;;;;;;3.90;2.13;;;21.90;99.90;;;;;;5031386;28;20048;-47
2023/09/14 07:27:04;;;;;;;4.07;2.30;;;21.90;99.90;;;;;;5034489;28;20107;-40
2023/09/14 07:29:29;;;;;;;3.53;2.20;;;21.90;99.90;;;;;;5034762;28;20026;-39
2023/09/14 07:31:57;;;;;;;2.50;2.00;;;21.90;99.90;;;;;;5034761;28;20029;-41
2023/09/14 07:34:23;;;;;;;3.50;2.78;;;21.90;99.90;;;;;;5034578;28;20391;-40
2023/09/14 07:36:49;;;;;;;4.22;2.75;;;21.90;99.90;;;;;;5034496;28;20047;-41
2023/09/14 07:39:15;;;;;;;3.10;2.80;;;21.90;99.90;;;;;;5034564;28;20026;-42
2023/09/14 07:41:41;;;;;;;6.47;2.90;;;21.90;99.90;;;;;;5034605;28;20032;-42
2023/09/14 07:44:07;;;;;;;3.63;2.97;;;21.90;99.90;;;;;;5034669;28;20059;-43
2023/09/14 07:46:33;;;;;;;3.03;2.55;;;21.90;99.90;;;;;;5034178;28;20025;-40
2023/09/14 07:48:59;;;;;;;3.50;2.70;;;21.90;99.90;;;;;;5034482;28;20026;-41
2023/09/14 07:51:25;;;;;;;3.22;2.92;;;21.90;99.90;;;;;;5034412;28;20479;-42
2023/09/14 07:53:53;;;;;;;5.55;3.15;;;21.90;99.90;;;;;;5034682;28;20083;-41
2023/09/14 07:56:19;;;;;;;3.42;2.40;;;21.90;99.90;;;;;;5033983;28;20022;-43
2023/09/14 07:58:44;;;;;;;3.33;2.10;;;21.90;99.90;;;;;;5034279;28;20027;-41
2023/09/14 08:01:10;;;;;;;2.50;2.10;;;21.90;99.90;;;;;;5034218;28;20482;-41
2023/09/14 08:03:35;;;;;;;3.00;2.25;;;21.90;99.90;;;;;;5034285;28;20091;-40
2023/09/14 08:06:01;;;;;;;2.45;1.92;;;21.90;99.90;;;;;;5033799;28;20029;-40
2023/09/14 08:08:27;;;;;;;2.88;1.90;;;21.90;99.90;;;;;;5034102;28;20033;-40
2023/09/14 08:10:53;;;;;;;2.15;1.95;;;21.90;99.90;;;;;;5034209;28;20021;-39
2023/09/14 08:13:20;;;;;;;3.25;1.85;;;21.90;99.90;;;;;;5033925;28;20104;-41
2023/09/14 08:15:46;;;;;;;2.33;2.10;;;21.90;99.90;;;;;;5033737;28;20026;-41
2023/09/14 08:18:11;;;;;;;2.85;2.10;;;22.00;99.90;;;;;;5034034;28;20033;-42
2023/09/14 08:20:38;;;;;;;2.38;2.05;;;21.90;99.90;;;;;;5033746;28;20045;-41
2023/09/14 08:23:04;;;;;;;3.33;2.20;;;21.90;99.90;;;;;;5033882;28;20018;-41
2023/09/14 08:25:30;;;;;;;3.88;2.63;;;22.00;99.90;;;;;;5033685;28;20026;-45
2023/09/14 08:27:58;;;;;;;2.35;2.10;;;21.90;99.90;;;;;;5033674;28;20022;-41
2023/09/14 08:30:24;;;;;;;2.70;2.15;;;22.00;99.90;;;;;;5033619;28;20032;-41
2023/09/14 08:32:49;;;;;;;2.63;2.20;;;21.90;99.90;;;;;;5034042;28;20022;-40
2023/09/14 08:35:25;;;;;;;5.22;2.40;;;21.90;99.90;;;;;;5033212;28;20087;-41
2023/09/14 08:37:55;;;;;;;2.78;1.92;;;21.90;99.90;;;;;;5032912;28;20025;-41
2023/09/14 08:40:21;;;;;;;3.60;2.38;;;22.00;99.90;;;;;;5033475;28;20017;-41
2023/09/14 08:42:53;;;;;;;2.47;2.05;;;21.90;99.90;;;;;;5033381;28;20024;-41
2023/09/14 08:45:23;;;;;;;3.13;2.10;;;22.00;99.90;;;;;;5033203;28;20021;-41
2023/09/14 08:47:50;;;;;;;5.50;2.30;;;21.90;99.90;;;;;;5033359;28;20036;-41
2023/09/14 08:50:18;;;;;;;2.95;2.38;;;21.90;99.90;;;;;;5033563;28;20021;-41
2023/09/14 08:52:45;;;;;;;6.43;3.83;;;22.00;99.90;;;;;;5015463;28;20028;-41
2023/09/14 08:55:11;;;;;;;11.57;5.97;;;22.00;99.90;;;;;;5032635;28;20028;-41
2023/09/14 08:57:39;;;;;;;11.13;5.50;;;21.30;99.90;;;;;;5032947;28;20383;-43
2023/09/14 09:00:14;;;;;;;11.20;5.88;;;21.00;99.90;;;;;;5032941;28;20034;-43
2023/09/14 09:02:44;;;;;;;6.13;5.00;;;20.70;99.90;;;;;;5032959;28;20048;-41
2023/09/14 09:05:11;;;;;;;10.15;4.22;;;20.70;99.90;;;;;;5032584;28;20079;-38
2023/09/14 09:07:41;;;;;;;5.88;3.90;;;20.70;99.90;;;;;;5032762;28;20541;-43
2023/09/14 09:10:25;;;;;;;7.00;3.10;;;20.80;99.90;;;;;;5032799;28;20026;-43
2023/09/14 09:12:53;;;;;;;7.63;3.20;;;20.90;99.90;;;;;;5032751;28;20105;-41
2023/09/14 09:15:18;;;;;;;10.13;3.40;;;21.00;99.90;;;;;;5032373;28;20017;-39
2023/09/14 09:17:44;;;;;;;7.60;2.80;;;21.10;99.90;;;;;;5032672;28;20022;-41
2023/09/14 09:20:14;;;;;;;5.57;3.20;;;21.20;99.90;;;;;;5032550;28;20029;-40
2023/09/14 09:22:43;;;;;;;5.75;2.53;;;21.30;99.90;;;;;;5032488;28;20024;-41
2023/09/14 09:25:13;;;;;;;5.53;2.78;;;21.30;99.90;;;;;;5032256;28;20018;-39
2023/09/14 09:27:39;;;;;;;3.83;2.78;;;21.30;99.90;;;;;;5032263;28;20059;-40
2023/09/14 09:30:06;;;;;;;6.65;3.10;;;21.40;99.90;;;;;;5032633;28;20104;-41
2023/09/14 09:32:32;;;;;;;5.07;2.83;;;21.50;99.90;;;;;;5032631;28;20071;-44
2023/09/14 09:35:18;;;;;;;9.75;3.05;;;21.50;99.90;;;;;;5032019;28;20021;-43
2023/09/14 09:37:45;;;;;;;5.07;2.67;;;21.50;99.90;;;;;;5054762;22;20041;-41
2023/09/14 09:40:34;;;;;;;4.15;2.33;;;21.60;99.90;;;;;;5031888;28;20498;-40
2023/09/14 09:43:07;;;;;;;5.25;2.40;;;21.60;99.90;;;;;;5031812;28;20116;-38
2023/09/14 09:45:33;;;;;;;4.30;2.55;;;21.60;99.90;;;;;;5031830;28;20105;-40
2023/09/14 09:48:02;;;;;;;3.63;2.47;;;21.70;99.90;;;;;;5031905;28;20018;-38
2023/09/14 09:50:28;;;;;;;3.55;2.60;;;21.60;99.90;;;;;;5031205;28;20036;-39
2023/09/14 09:52:54;;;;;;;4.07;2.50;;;21.70;99.90;;;;;;5032222;28;20065;-41
2023/09/14 09:55:20;;;;;;;3.97;2.40;;;21.70;99.90;;;;;;5031702;28;20497;-41
2023/09/14 09:57:53;;;;;;;4.20;2.30;;;21.60;99.90;;;;;;5031862;28;20030;-41
2023/09/14 10:00:20;;;;;;;3.40;2.57;;;21.70;99.90;;;;;;5030641;28;20025;-40
2023/09/14 10:02:49;;;;;;;3.60;2.63;;;21.70;99.90;;;;;;5031804;28;20021;-42
2023/09/14 10:05:15;;;;;;;3.40;2.10;;;21.70;99.90;;;;;;5031707;28;20017;-41
2023/09/14 10:07:41;;;;;;;3.25;2.30;;;21.70;99.90;;;;;;5031606;28;20029;-42
2023/09/14 10:10:08;;;;;;;2.88;2.25;;;21.80;99.90;;;;;;5031919;28;20474;-41
2023/09/14 10:12:38;;;;;;;2.88;2.58;;;21.80;99.90;;;;;;5031753;28;20506;-40
2023/09/14 10:15:05;;;;;;;3.42;2.60;;;21.80;99.90;;;;;;5031653;28;20020;-41
2023/09/14 10:17:31;;;;;;;2.60;1.85;;;21.80;99.90;;;;;;5031311;28;20038;-41
2023/09/14 10:20:02;;;;;;;4.05;2.30;;;21.80;99.90;;;;;;5031754;28;20068;-40
2023/09/14 10:22:29;;;;;;;2.30;2.10;;;21.90;99.90;;;;;;5031587;28;20052;-40
2023/09/14 10:24:55;;;;;;;2.92;2.00;;;21.90;99.90;;;;;;5031322;28;20052;-45
2023/09/14 10:27:21;;;;;;;4.13;1.90;;;21.90;99.90;;;;;;5031270;28;20021;-40
2023/09/14 10:29:49;;;;;;;2.95;2.20;;;21.90;99.90;;;;;;5013709;28;20025;-40
2023/09/14 10:32:16;;;;;;;2.55;2.08;;;21.90;99.90;;;;;;5031308;28;20398;-40
2023/09/14 10:34:42;;;;;;;2.83;2.00;;;22.00;99.90;;;;;;5031469;28;20025;-38
2023/09/14 10:37:10;;;;;;;2.38;2.00;;;22.00;99.90;;;;;;5031098;28;20030;-40
2023/09/14 10:39:37;;;;;;;3.17;2.00;;;22.00;99.90;;;;;;5031617;28;20100;-44
2023/09/14 10:42:04;;;;;;;3.03;2.03;;;22.10;99.90;;;;;;5031305;28;20033;-40
2023/09/14 10:44:30;;;;;;;3.92;1.88;;;22.10;99.90;;;;;;5031302;28;20033;-42
2023/09/14 10:46:58;;;;;;;1.90;1.70;;;22.10;99.90;;;;;;5013295;28;20033;-38
2023/09/14 10:49:31;;;;;;;2.33;1.95;;;22.10;99.90;;;;;;5031305;28;20048;-45
2023/09/14 10:51:56;;;;;;;2.72;1.85;;;22.10;99.90;;;;;;5031283;28;20087;-40
2023/09/14 10:54:24;;;;;;;2.45;1.90;;;22.10;99.90;;;;;;5013332;28;20026;-40
2023/09/14 10:56:55;;;;;;;1.92;1.60;;;22.20;99.90;;;;;;5029767;28;20029;-39
2023/09/14 10:59:42;;;;;;;2.78;2.10;;;22.10;99.90;;;;;;5031159;28;20071;-40
2023/09/14 11:02:07;;;;;;;3.03;1.88;;;22.20;99.90;;;;;;5034996;28;20033;-40
2023/09/14 11:04:33;;;;;;;2.40;1.88;;;22.20;99.90;;;;;;5035037;28;20163;-42
2023/09/14 11:06:59;;;;;;;3.92;1.63;;;22.20;99.90;;;;;;5034839;28;20036;-43
2023/09/14 11:09:25;;;;;;;2.03;1.73;;;22.20;99.90;;;;;;5035047;28;20386;-38
2023/09/14 11:11:51;;;;;;;2.50;1.63;;;22.20;99.90;;;;;;5034922;28;20336;-41
2023/09/14 11:14:18;;;;;;;2.60;1.60;;;22.30;99.90;;;;;;5035408;28;20018;-41
2023/09/14 11:16:50;;;;;;;2.38;1.70;;;22.30;99.90;;;;;;5034811;28;20053;-41
2023/09/14 11:19:37;;;;;;;4.10;2.00;;;22.30;99.90;;;;;;5034870;28;20029;-41
2023/09/14 11:22:04;;;;;;;2.40;1.60;;;22.30;99.90;;;;;;5034797;28;20033;-41
2023/09/14 11:24:34;;;;;;;1.95;1.55;;;22.30;99.90;;;;;;5034763;28;20107;-42
2023/09/14 11:27:00;;;;;;;2.78;1.70;;;22.30;99.90;;;;;;5034545;28;20475;-41
2023/09/14 11:29:27;;;;;;;6.10;1.95;;;22.30;99.90;;;;;;5034818;28;20257;-42
2023/09/14 11:32:18;;;;;;;2.40;1.65;;;22.30;99.90;;;;;;5034533;28;20505;-40
2023/09/14 11:34:44;;;;;;;2.25;1.70;;;22.30;99.90;;;;;;5034471;28;20033;-45
2023/09/14 11:37:13;;;;;;;2.17;1.77;;;22.30;99.90;;;;;;5016473;28;20047;-41
2023/09/14 11:39:40;;;;;;;1.70;1.60;;;22.40;99.90;;;;;;5034573;28;20028;-40
2023/09/14 11:42:06;;;;;;;2.00;1.80;;;22.40;99.90;;;;;;5034407;28;20560;-40
2023/09/14 11:44:44;;;;;;;1.70;1.48;;;22.40;99.90;;;;;;5034850;28;20029;-40
2023/09/14 11:47:10;;;;;;;2.35;1.38;;;22.30;99.90;;;;;;5034132;28;20036;-42
2023/09/14 11:49:36;;;;;;;1.73;1.48;;;22.40;99.90;;;;;;5034318;28;20076;-44
2023/09/14 11:52:03;;;;;;;2.35;1.40;;;22.40;99.90;;;;;;5034277;28;20021;-43
2023/09/14 11:54:29;;;;;;;2.58;1.50;;;22.40;99.90;;;;;;5034483;28;20021;-41
2023/09/14 11:57:13;;;;;;;1.85;1.70;;;22.40;99.90;;;;;;5034809;28;20025;-38
2023/09/14 11:59:39;;;;;;;3.67;1.38;;;22.40;99.90;;;;;;5034084;28;20029;-38
2023/09/14 12:02:04;;;;;;;2.88;1.30;;;22.40;99.90;;;;;;5034074;28;20121;-40
2023/09/14 12:04:31;;;;;;;2.05;1.70;;;22.40;99.90;;;;;;5033952;28;20045;-40
2023/09/14 12:06:58;;;;;;;1.90;1.40;;;22.50;99.90;;;;;;5033772;28;20033;-43
2023/09/14 12:09:37;;;;;;;1.75;1.40;;;22.40;99.90;;;;;;5034014;28;20057;-48
2023/09/14 12:12:03;;;;;;;1.73;1.40;;;22.40;99.90;;;;;;5032743;28;20018;-43
2023/09/14 12:14:40;;;;;;;1.48;1.30;;;22.40;99.90;;;;;;5033760;28;20382;-40
2023/09/14 12:17:22;;;;;;;2.05;1.27;;;22.50;99.90;;;;;;5033882;28;20086;-37
2023/09/14 12:19:50;;;;;;;1.85;1.50;;;22.50;99.90;;;;;;5034191;28;20398;-41
2023/09/14 12:22:18;;;;;;;1.58;1.20;;;22.50;99.90;;;;;;5033963;28;20033;-41
2023/09/14 12:24:44;;;;;;;2.22;1.30;;;22.50;99.90;;;;;;5034052;28;20028;-40
2023/09/14 12:27:11;;;;;;;1.92;1.40;;;22.50;99.90;;;;;;5033832;28;20088;-40
2023/09/14 12:29:37;;;;;;;3.20;1.60;;;22.50;99.90;;;;;;5034395;28;20024;-38
2023/09/14 12:32:03;;;;;;;2.30;1.30;;;22.50;99.90;;;;;;5033504;28;20022;-38
2023/09/14 12:34:30;;;;;;;1.70;1.20;;;22.50;99.90;;;;;;5033908;28;20459;-42
2023/09/14 12:36:55;;;;;;;1.60;1.42;;;22.50;99.90;;;;;;5033172;28;20438;-40
2023/09/14 12:39:21;;;;;;;2.03;1.38;;;22.50;99.90;;;;;;5033459;28;20118;-39
2023/09/14 12:41:52;;;;;;;2.22;1.60;;;22.50;99.90;;;;;;5033562;28;20367;-38
2023/09/14 12:44:19;;;;;;;2.03;1.40;;;22.50;99.90;;;;;;5033689;28;20026;-40
2023/09/14 12:46:45;;;;;;;1.83;1.40;;;22.50;99.90;;;;;;5032963;28;20029;-40